createdAt,value
2023-05-19T00:01:43.766Z,54.64
2023-05-19T00:03:53.880Z,54.76
2023-05-19T00:05:59.516Z,54.72
2023-05-19T00:08:04.104Z,55.02
2023-05-19T00:10:08.778Z,54.86
2023-05-19T00:12:13.954Z,55.07
2023-05-19T00:14:17.780Z,55.19
2023-05-19T00:16:22.173Z,55.54
2023-05-19T00:18:26.546Z,56.08
2023-05-19T00:20:31.553Z,56.11
2023-05-19T00:22:35.264Z,56.29
2023-05-19T00:24:38.631Z,56.40
2023-05-19T00:26:42.145Z,56.59
2023-05-19T00:28:45.493Z,56.79
2023-05-19T00:30:48.868Z,57.02
2023-05-19T00:32:52.589Z,57.19
2023-05-19T00:34:56.180Z,57.06
2023-05-19T00:37:00.946Z,57.33
2023-05-19T00:39:04.570Z,57.07
2023-05-19T00:41:08.601Z,57.24
2023-05-19T00:43:11.951Z,57.53
2023-05-19T00:45:15.351Z,57.60
2023-05-19T00:47:18.875Z,57.92
2023-05-19T00:49:22.236Z,57.92
2023-05-19T00:51:29.569Z,57.97
2023-05-19T00:53:35.706Z,58.17
2023-05-19T00:55:40.544Z,58.32
2023-05-19T00:57:45.296Z,58.40
2023-05-19T00:59:49.615Z,58.38
2023-05-19T01:01:53.956Z,58.47
2023-05-19T01:03:58.919Z,58.90
2023-05-19T01:06:04.921Z,58.92
2023-05-19T01:08:08.439Z,58.79
2023-05-19T01:10:14.646Z,58.83
2023-05-19T01:12:18.351Z,58.76
2023-05-19T01:14:22.188Z,58.87
2023-05-19T01:16:32.048Z,58.81
2023-05-19T01:18:45.593Z,59.27
2023-05-19T01:20:53.201Z,59.20
2023-05-19T01:23:21.482Z,59.43
2023-05-19T01:25:47.115Z,59.49
2023-05-19T01:28:20.728Z,59.64
2023-05-19T01:30:31.268Z,59.78
2023-05-19T01:32:35.859Z,59.53
2023-05-19T01:34:44.546Z,59.92
2023-05-19T01:36:49.914Z,60.04
2023-05-19T01:38:57.112Z,60.07
2023-05-19T01:41:01.566Z,60.13
2023-05-19T01:43:05.807Z,60.23
2023-05-19T01:45:11.313Z,60.25
2023-05-19T01:47:17.066Z,60.47
2023-05-19T01:49:20.699Z,60.42
2023-05-19T01:51:24.191Z,60.60
2023-05-19T01:53:27.729Z,60.74
2023-05-19T01:55:31.327Z,60.70
2023-05-19T01:57:44.184Z,60.68
2023-05-19T01:59:58.904Z,60.70
2023-05-19T02:02:09.377Z,60.87
2023-05-19T02:04:26.182Z,61.07
2023-05-19T02:06:38.009Z,61.17
2023-05-19T02:08:45.281Z,61.24
2023-05-19T02:10:56.277Z,61.27
2023-05-19T02:13:06.211Z,61.23
2023-05-19T02:15:15.331Z,61.37
2023-05-19T02:17:21.267Z,61.49
2023-05-19T02:19:28.429Z,61.63
2023-05-19T02:21:32.707Z,61.77
2023-05-19T02:23:36.074Z,61.74
2023-05-19T02:25:39.521Z,61.75
2023-05-19T02:27:43.199Z,62.01
2023-05-19T02:29:46.588Z,61.98
2023-05-19T02:31:50.040Z,62.23
2023-05-19T02:33:53.399Z,62.49
2023-05-19T02:35:58.377Z,62.19
2023-05-19T02:38:01.862Z,62.52
2023-05-19T02:40:07.105Z,62.44
2023-05-19T02:42:10.810Z,62.52
2023-05-19T02:44:14.256Z,62.92
2023-05-19T02:46:17.704Z,62.98
2023-05-19T02:48:21.146Z,63.13
2023-05-19T02:50:24.512Z,62.84
2023-05-19T02:52:29.262Z,62.93
2023-05-19T02:54:33.441Z,63.05
2023-05-19T02:56:37.164Z,63.36
2023-05-19T02:58:43.027Z,63.23
2023-05-19T03:00:46.389Z,63.60
2023-05-19T03:02:49.960Z,63.68
2023-05-19T03:04:53.612Z,63.74
2023-05-19T03:06:57.348Z,63.42
2023-05-19T03:09:02.084Z,63.48
2023-05-19T03:11:05.564Z,64.05
2023-05-19T03:13:08.937Z,64.01
2023-05-19T03:15:15.010Z,63.78
2023-05-19T03:17:18.707Z,64.04
2023-05-19T03:19:24.550Z,63.84
2023-05-19T03:21:28.174Z,63.85
2023-05-19T03:23:31.625Z,63.70
2023-05-19T03:25:36.380Z,63.95
2023-05-19T03:27:40.015Z,64.34
2023-05-19T03:29:43.411Z,64.10
2023-05-19T03:31:47.097Z,63.94
2023-05-19T03:33:52.557Z,64.21
2023-05-19T03:35:57.618Z,64.49
2023-05-19T03:38:01.496Z,64.96
2023-05-19T03:40:06.045Z,65.17
2023-05-19T03:42:13.801Z,65.62
2023-05-19T03:44:17.233Z,65.78
2023-05-19T03:46:21.477Z,65.80
2023-05-19T03:48:56.176Z,65.51
2023-05-19T03:51:34.994Z,65.52
2023-05-19T03:53:48.631Z,65.94
2023-05-19T03:55:52.150Z,65.93
2023-05-19T03:57:57.125Z,65.89
2023-05-19T04:00:00.529Z,65.95
2023-05-19T04:02:04.094Z,65.82
2023-05-19T04:04:07.569Z,65.92
2023-05-19T04:06:11.184Z,66.00
2023-05-19T04:08:14.513Z,66.29
2023-05-19T04:10:17.913Z,66.16
2023-05-19T04:12:21.299Z,66.32
2023-05-19T04:14:26.066Z,65.82
2023-05-19T04:16:33.264Z,66.21
2023-05-19T04:18:36.843Z,66.13
2023-05-19T04:20:45.820Z,65.95
2023-05-19T04:22:49.313Z,66.02
2023-05-19T04:24:53.033Z,65.86
2023-05-19T04:26:56.771Z,65.88
2023-05-19T04:29:00.490Z,66.03
2023-05-19T04:31:10.563Z,65.90
2023-05-19T04:33:14.070Z,66.15
2023-05-19T04:35:19.447Z,66.00
2023-05-19T04:37:24.162Z,65.87
2023-05-19T04:39:27.638Z,66.13
2023-05-19T04:41:31.539Z,66.47
2023-05-19T04:43:35.218Z,66.28
2023-05-19T04:45:42.390Z,66.54
2023-05-19T04:47:49.108Z,66.75
2023-05-19T04:49:55.643Z,66.86
2023-05-19T04:51:59.302Z,67.28
2023-05-19T04:54:06.279Z,67.47
2023-05-19T04:56:13.727Z,67.49
2023-05-19T04:58:18.414Z,67.65
2023-05-19T05:00:22.797Z,67.90
2023-05-19T05:02:32.086Z,67.66
2023-05-19T05:04:40.501Z,67.75
2023-05-19T05:06:47.796Z,68.04
2023-05-19T05:08:52.310Z,67.95
2023-05-19T05:10:56.454Z,67.99
2023-05-19T05:13:01.153Z,68.01
2023-05-19T05:15:06.902Z,67.66
2023-05-19T05:17:12.760Z,67.64
2023-05-19T05:19:18.844Z,67.19
2023-05-19T05:21:24.283Z,67.08
2023-05-19T05:23:28.349Z,67.02
2023-05-19T05:25:33.983Z,66.56
2023-05-19T05:27:37.899Z,66.24
2023-05-19T05:29:43.422Z,65.75
2023-05-19T05:31:46.892Z,65.40
2023-05-19T05:33:50.376Z,64.87
2023-05-19T05:35:57.330Z,64.54
2023-05-19T05:38:03.433Z,63.95
2023-05-19T05:40:08.422Z,63.29
2023-05-19T05:42:12.605Z,62.71
2023-05-19T05:44:17.174Z,62.72
2023-05-19T05:46:21.794Z,62.10
2023-05-19T05:48:25.796Z,61.81
2023-05-19T05:50:29.973Z,61.48
2023-05-19T05:52:34.128Z,61.16
2023-05-19T05:54:40.040Z,60.95
2023-05-19T05:56:44.930Z,60.92
2023-05-19T05:58:49.493Z,60.59
2023-05-19T06:00:55.232Z,60.35
2023-05-19T06:02:59.172Z,59.60
2023-05-19T06:05:03.678Z,59.41
2023-05-19T06:07:10.089Z,59.63
2023-05-19T06:09:15.124Z,59.88
2023-05-19T06:11:21.899Z,59.61
2023-05-19T06:13:26.087Z,59.60
2023-05-19T06:15:29.644Z,59.44
2023-05-19T06:17:37.943Z,59.17
2023-05-19T06:19:41.345Z,59.00
2023-05-19T06:21:44.751Z,59.02
2023-05-19T06:23:48.577Z,58.79
2023-05-19T06:25:52.047Z,58.59
2023-05-19T06:27:57.251Z,59.92
2023-05-19T06:30:00.877Z,60.26
2023-05-19T06:32:08.995Z,60.12
2023-05-19T06:34:14.901Z,59.85
2023-05-19T06:36:18.712Z,58.77
2023-05-19T06:38:25.377Z,58.38
2023-05-19T06:40:31.198Z,58.13
2023-05-19T06:42:35.058Z,58.03
2023-05-19T06:44:54.198Z,57.64
2023-05-19T06:46:57.706Z,57.16
2023-05-19T06:49:01.446Z,57.32
2023-05-19T06:51:10.144Z,57.04
2023-05-19T06:53:15.405Z,56.62
2023-05-19T06:55:19.860Z,56.58
2023-05-19T06:57:25.752Z,56.16
2023-05-19T06:59:29.652Z,56.02
2023-05-19T07:01:34.530Z,55.88
2023-05-19T07:03:38.751Z,56.23
2023-05-19T07:05:42.641Z,56.01
2023-05-19T07:07:47.050Z,55.64
2023-05-19T07:09:54.770Z,55.11
2023-05-19T07:11:58.373Z,54.56
2023-05-19T07:14:01.900Z,54.39
2023-05-19T07:16:08.230Z,53.75
2023-05-19T07:18:13.133Z,53.51
2023-05-19T07:20:16.967Z,53.88
2023-05-19T07:22:21.008Z,53.72
2023-05-19T07:24:24.976Z,53.26
2023-05-19T07:26:28.447Z,52.85
2023-05-19T07:28:31.851Z,51.30
2023-05-19T07:30:35.370Z,50.94
2023-05-19T07:32:39.035Z,50.91
2023-05-19T07:34:43.780Z,50.77
2023-05-19T07:36:47.338Z,49.92
2023-05-19T07:38:51.152Z,50.15
2023-05-19T07:40:54.490Z,50.07
2023-05-19T07:42:57.852Z,49.61
2023-05-19T07:45:03.126Z,49.52
2023-05-19T07:47:07.064Z,49.14
2023-05-19T07:49:10.448Z,48.86
2023-05-19T07:51:16.153Z,48.61
2023-05-19T07:53:19.829Z,48.54
2023-05-19T07:55:23.739Z,47.59
2023-05-19T07:57:27.341Z,47.80
2023-05-19T07:59:30.745Z,48.06
2023-05-19T08:01:34.167Z,47.70
2023-05-19T08:03:37.964Z,48.04
2023-05-19T08:05:41.457Z,47.89
2023-05-19T08:07:46.161Z,47.90
2023-05-19T08:09:49.628Z,47.52
2023-05-19T08:11:52.941Z,47.35
2023-05-19T08:13:56.365Z,47.36
2023-05-19T08:16:00.714Z,47.20
2023-05-19T08:18:05.280Z,46.47
2023-05-19T08:20:10.246Z,46.49
2023-05-19T08:22:13.679Z,46.11
2023-05-19T08:24:18.415Z,45.87
2023-05-19T08:26:22.817Z,46.78
2023-05-19T08:28:26.503Z,46.86
2023-05-19T08:30:30.140Z,46.67
2023-05-19T08:32:33.570Z,46.64
2023-05-19T08:34:37.156Z,45.76
2023-05-19T08:36:40.831Z,45.52
2023-05-19T08:38:44.244Z,45.49
2023-05-19T08:40:49.203Z,45.11
2023-05-19T08:42:52.568Z,44.95
2023-05-19T08:44:55.998Z,44.98
2023-05-19T08:47:03.784Z,45.34
2023-05-19T08:49:13.111Z,44.50
2023-05-19T08:51:24.694Z,44.05
2023-05-19T08:53:34.651Z,44.31
2023-05-19T08:55:44.936Z,44.42
2023-05-19T08:57:50.823Z,45.31
2023-05-19T08:59:55.843Z,44.77
2023-05-19T09:01:59.907Z,45.43
2023-05-19T09:04:04.447Z,45.96
2023-05-19T09:06:08.960Z,44.95
2023-05-19T09:08:12.512Z,45.14
2023-05-19T09:10:16.389Z,45.37
2023-05-19T09:12:19.864Z,45.08
2023-05-19T09:14:24.662Z,44.90
2023-05-19T09:16:30.232Z,44.22
2023-05-19T09:18:33.962Z,43.57
2023-05-19T09:20:41.702Z,43.26
2023-05-19T09:22:47.334Z,42.38
2023-05-19T09:24:51.007Z,41.79
2023-05-19T09:26:57.931Z,41.74
2023-05-19T09:29:03.569Z,41.88
2023-05-19T09:31:09.572Z,42.40
2023-05-19T09:33:18.388Z,44.11
2023-05-19T09:35:21.855Z,42.70
2023-05-19T09:37:25.816Z,41.27
2023-05-19T09:39:29.699Z,41.75
2023-05-19T09:41:34.340Z,41.78
2023-05-19T09:43:37.751Z,41.53
2023-05-19T09:45:41.113Z,40.85
2023-05-19T09:47:46.059Z,39.17
2023-05-19T09:49:50.251Z,40.15
2023-05-19T09:51:55.665Z,39.33
2023-05-19T09:53:59.665Z,38.78
2023-05-19T09:56:04.395Z,38.09
2023-05-19T09:58:08.069Z,37.79
2023-05-19T10:00:15.680Z,37.02
2023-05-19T10:02:22.024Z,36.97
2023-05-19T10:04:29.526Z,36.42
2023-05-19T10:06:33.181Z,36.38
2023-05-19T10:08:38.685Z,36.53
2023-05-19T10:10:42.763Z,38.29
2023-05-19T10:12:47.005Z,36.89
2023-05-19T10:14:52.988Z,36.55
2023-05-19T10:16:57.875Z,36.33
2023-05-19T10:19:02.556Z,35.40
2023-05-19T10:21:09.149Z,36.78
2023-05-19T10:23:12.617Z,34.53
2023-05-19T10:25:18.616Z,34.42
2023-05-19T10:27:23.187Z,34.73
2023-05-19T10:29:32.869Z,34.38
2023-05-19T10:31:37.406Z,34.29
2023-05-19T10:34:15.982Z,34.26
2023-05-19T10:36:38.272Z,34.64
2023-05-19T10:38:49.027Z,34.74
2023-05-19T10:41:01.635Z,33.61
2023-05-19T10:43:20.790Z,34.04
2023-05-19T10:45:28.126Z,33.26
2023-05-19T10:47:32.437Z,33.35
2023-05-19T10:49:36.449Z,33.57
2023-05-19T10:51:41.100Z,34.55
2023-05-19T10:53:49.951Z,33.16
2023-05-19T10:55:55.952Z,33.47
2023-05-19T10:58:00.411Z,33.47
2023-05-19T11:00:11.673Z,32.98
2023-05-19T11:02:40.991Z,33.15
2023-05-19T11:04:51.268Z,32.79
2023-05-19T11:06:57.789Z,33.09
2023-05-19T11:09:05.383Z,32.74
2023-05-19T11:11:16.209Z,32.00
2023-05-19T11:13:23.059Z,32.43
2023-05-19T11:15:28.176Z,32.50
2023-05-19T11:17:33.092Z,32.65
2023-05-19T11:19:36.928Z,32.96
2023-05-19T11:21:49.076Z,33.73
2023-05-19T11:23:54.008Z,34.02
2023-05-19T11:25:57.875Z,33.70
2023-05-19T11:28:01.361Z,33.53
2023-05-19T11:30:14.349Z,33.99
2023-05-19T11:32:18.195Z,33.64
2023-05-19T11:34:21.802Z,33.62
2023-05-19T11:36:25.842Z,33.05
2023-05-19T11:38:30.248Z,32.31
2023-05-19T11:40:35.172Z,32.61
2023-05-19T11:42:38.521Z,31.54
2023-05-19T11:44:42.766Z,31.60
2023-05-19T11:46:46.468Z,31.72
2023-05-19T11:48:50.494Z,32.33
2023-05-19T11:50:54.419Z,31.96
2023-05-19T11:52:57.974Z,31.31
2023-05-19T11:55:01.741Z,31.14
2023-05-19T11:57:09.148Z,31.26
2023-05-19T11:59:12.781Z,32.12
2023-05-19T12:01:34.973Z,31.94
2023-05-19T12:03:38.680Z,31.44
2023-05-19T12:05:46.059Z,30.78
2023-05-19T12:07:51.476Z,31.36
2023-05-19T12:09:56.492Z,30.27
2023-05-19T12:11:59.947Z,30.27
2023-05-19T12:14:04.777Z,30.03
2023-05-19T12:16:09.730Z,31.08
2023-05-19T12:18:13.130Z,30.66
2023-05-19T12:20:16.920Z,29.80
2023-05-19T12:22:20.982Z,30.50
2023-05-19T12:24:24.449Z,30.05
2023-05-19T12:26:28.279Z,30.25
2023-05-19T12:28:32.091Z,29.94
2023-05-19T12:30:37.086Z,29.23
2023-05-19T12:32:40.969Z,28.92
2023-05-19T12:34:44.402Z,28.78
2023-05-19T12:36:47.791Z,29.41
2023-05-19T12:38:54.964Z,29.11
2023-05-19T12:40:59.701Z,28.96
2023-05-19T12:43:03.025Z,29.32
2023-05-19T12:45:07.331Z,28.99
2023-05-19T12:47:13.051Z,28.15
2023-05-19T12:49:17.051Z,28.07
2023-05-19T12:51:20.934Z,29.31
2023-05-19T12:53:28.244Z,28.95
2023-05-19T12:55:31.684Z,28.67
2023-05-19T12:57:36.159Z,28.37
2023-05-19T12:59:39.587Z,27.66
2023-05-19T13:01:42.937Z,27.41
2023-05-19T13:03:49.262Z,27.13
2023-05-19T13:05:53.447Z,27.12
2023-05-19T13:07:58.382Z,27.08
2023-05-19T13:10:01.721Z,27.30
2023-05-19T13:12:05.617Z,26.99
2023-05-19T13:14:09.010Z,27.11
2023-05-19T13:16:13.475Z,27.36
2023-05-19T13:18:17.189Z,28.00
2023-05-19T13:20:22.137Z,28.00
2023-05-19T13:22:25.522Z,28.24
2023-05-19T13:24:28.947Z,29.15
2023-05-19T13:26:32.357Z,29.91
2023-05-19T13:28:35.946Z,30.40
2023-05-19T13:30:41.443Z,30.72
2023-05-19T13:32:45.329Z,31.63
2023-05-19T13:34:48.969Z,31.41
2023-05-19T13:36:53.731Z,31.34
2023-05-19T13:38:57.169Z,31.19
2023-05-19T13:41:01.686Z,30.20
2023-05-19T13:43:05.940Z,29.61
2023-05-19T13:45:10.640Z,29.53
2023-05-19T13:47:15.107Z,29.53
2023-05-19T13:49:18.677Z,29.18
2023-05-19T13:51:22.132Z,28.82
2023-05-19T13:53:27.338Z,30.69
2023-05-19T13:55:30.895Z,29.72
2023-05-19T13:57:34.288Z,29.21
2023-05-19T13:59:45.844Z,29.65
2023-05-19T14:01:56.879Z,30.49
2023-05-19T14:04:01.207Z,31.48
2023-05-19T14:06:04.968Z,30.99
2023-05-19T14:08:08.375Z,30.80
2023-05-19T14:10:13.289Z,30.00
2023-05-19T14:12:16.712Z,30.70
2023-05-19T14:14:20.413Z,30.43
2023-05-19T14:16:26.139Z,29.27
2023-05-19T14:18:29.474Z,29.05
2023-05-19T14:20:33.358Z,29.13
2023-05-19T14:22:36.917Z,29.85
2023-05-19T14:24:41.484Z,29.69
2023-05-19T14:26:46.532Z,28.77
2023-05-19T14:28:51.320Z,29.07
2023-05-19T14:30:54.608Z,28.83
2023-05-19T14:32:58.071Z,29.84
2023-05-19T14:35:01.973Z,29.63
2023-05-19T14:37:05.651Z,29.01
2023-05-19T14:39:09.019Z,28.44
2023-05-19T14:41:12.432Z,28.94
2023-05-19T14:43:17.282Z,27.95
2023-05-19T14:45:20.619Z,27.37
2023-05-19T14:47:25.693Z,27.93
2023-05-19T14:49:29.820Z,27.38
2023-05-19T14:51:33.394Z,28.27
2023-05-19T14:53:36.782Z,27.82
2023-05-19T14:55:40.128Z,27.97
2023-05-19T14:57:43.592Z,27.34
2023-05-19T14:59:48.453Z,27.60
2023-05-19T15:01:51.814Z,27.75
2023-05-19T15:03:55.266Z,27.17
2023-05-19T15:05:58.619Z,28.15
2023-05-19T15:08:02.284Z,27.65
2023-05-19T15:10:10.678Z,28.33
2023-05-19T15:12:14.156Z,28.14
2023-05-19T15:14:17.644Z,28.19
2023-05-19T15:16:22.352Z,28.47
2023-05-19T15:18:26.046Z,28.89
2023-05-19T15:20:29.680Z,29.61
2023-05-19T15:22:33.257Z,30.19
2023-05-19T15:24:36.782Z,29.70
2023-05-19T15:26:40.231Z,28.52
2023-05-19T15:28:43.555Z,27.57
2023-05-19T15:30:47.101Z,28.68
2023-05-19T15:32:51.938Z,28.57
2023-05-19T15:34:55.693Z,28.74
2023-05-19T15:36:59.029Z,29.19
2023-05-19T15:39:03.633Z,28.94
2023-05-19T15:41:08.634Z,28.81
2023-05-19T15:43:12.019Z,28.45
2023-05-19T15:45:15.344Z,27.47
2023-05-19T15:47:18.917Z,27.50
2023-05-19T15:49:25.054Z,27.23
2023-05-19T15:51:29.251Z,27.56
2023-05-19T15:53:32.697Z,27.68
2023-05-19T15:55:36.100Z,28.29
2023-05-19T15:57:39.491Z,27.60
2023-05-19T15:59:42.878Z,28.44
2023-05-19T16:01:47.757Z,28.13
2023-05-19T16:03:51.272Z,28.31
2023-05-19T16:05:56.463Z,27.73
2023-05-19T16:07:59.954Z,27.03
2023-05-19T16:10:03.331Z,28.02
2023-05-19T16:12:07.582Z,27.87
2023-05-19T16:14:10.983Z,28.07
2023-05-19T16:16:14.363Z,27.53
2023-05-19T16:18:17.752Z,27.96
2023-05-19T16:20:26.596Z,27.83
2023-05-19T16:22:31.242Z,27.44
2023-05-19T16:24:34.567Z,27.50
2023-05-19T16:26:37.944Z,27.45
2023-05-19T16:28:41.292Z,27.57
2023-05-19T16:30:44.642Z,27.77
2023-05-19T16:32:48.048Z,27.13
2023-05-19T16:34:51.542Z,27.06
2023-05-19T16:36:54.866Z,27.12
2023-05-19T16:39:02.776Z,27.39
2023-05-19T16:41:07.622Z,27.67
2023-05-19T16:43:10.980Z,27.40
2023-05-19T16:45:17.343Z,28.01
2023-05-19T16:47:20.876Z,28.22
2023-05-19T16:49:24.268Z,27.09
2023-05-19T16:51:27.742Z,27.37
2023-05-19T16:53:31.969Z,27.01
2023-05-19T16:55:36.611Z,26.68
2023-05-19T16:57:39.956Z,26.90
2023-05-19T16:59:43.671Z,27.21
2023-05-19T17:01:47.189Z,27.48
2023-05-19T17:03:50.732Z,27.67
2023-05-19T17:05:54.225Z,27.29
2023-05-19T17:07:57.595Z,26.92
2023-05-19T17:10:00.986Z,27.07
2023-05-19T17:12:06.471Z,26.77
2023-05-19T17:14:10.040Z,27.10
2023-05-19T17:16:13.506Z,27.48
2023-05-19T17:18:16.968Z,27.43
2023-05-19T17:20:20.344Z,27.15
2023-05-19T17:22:23.720Z,27.15
2023-05-19T17:24:28.820Z,26.94
2023-05-19T17:26:32.198Z,27.55
2023-05-19T17:28:36.852Z,27.37
2023-05-19T17:30:40.782Z,27.81
2023-05-19T17:32:44.269Z,27.38
2023-05-19T17:34:47.771Z,27.73
2023-05-19T17:36:51.234Z,27.69
2023-05-19T17:38:54.599Z,28.08
2023-05-19T17:40:58.788Z,28.08
2023-05-19T17:43:02.180Z,28.41
2023-05-19T17:45:08.341Z,28.18
2023-05-19T17:47:13.008Z,28.39
2023-05-19T17:49:16.469Z,28.02
2023-05-19T17:51:21.110Z,28.28
2023-05-19T17:53:24.998Z,28.43
2023-05-19T17:55:30.948Z,28.45
2023-05-19T17:57:36.143Z,28.53
2023-05-19T17:59:40.172Z,28.72
2023-05-19T18:01:45.453Z,28.98
2023-05-19T18:03:50.081Z,29.15
2023-05-19T18:05:54.029Z,29.38
2023-05-19T18:07:58.349Z,29.57
2023-05-19T18:10:02.349Z,30.01
2023-05-19T18:12:06.726Z,30.25
2023-05-19T18:14:10.035Z,29.47
2023-05-19T18:16:13.869Z,29.59
2023-05-19T18:18:18.584Z,29.62
2023-05-19T18:20:21.986Z,30.03
2023-05-19T18:22:25.412Z,29.97
2023-05-19T18:24:28.867Z,30.20
2023-05-19T18:26:33.013Z,30.50
2023-05-19T18:28:38.218Z,30.63
2023-05-19T18:30:41.935Z,30.71
2023-05-19T18:32:45.564Z,30.66
2023-05-19T18:34:50.307Z,30.73
2023-05-19T18:36:53.684Z,30.65
2023-05-19T18:38:58.186Z,30.59
2023-05-19T18:41:01.722Z,30.91
2023-05-19T18:43:05.051Z,31.02
2023-05-19T18:45:09.264Z,31.01
2023-05-19T18:47:12.578Z,31.21
2023-05-19T18:49:16.365Z,31.47
2023-05-19T18:51:21.767Z,31.75
2023-05-19T18:53:25.379Z,31.88
2023-05-19T18:55:28.745Z,31.98
2023-05-19T18:57:32.245Z,32.05
2023-05-19T18:59:35.784Z,32.21
2023-05-19T19:01:39.300Z,32.29
2023-05-19T19:03:43.679Z,32.72
2023-05-19T19:05:47.771Z,32.78
2023-05-19T19:07:53.295Z,32.85
2023-05-19T19:09:56.743Z,32.82
2023-05-19T19:12:00.082Z,33.08
2023-05-19T19:14:03.430Z,33.10
2023-05-19T19:16:07.728Z,33.47
2023-05-19T19:18:11.311Z,33.54
2023-05-19T19:20:15.127Z,33.33
2023-05-19T19:22:18.605Z,33.69
2023-05-19T19:24:23.308Z,33.62
2023-05-19T19:26:28.847Z,33.99
2023-05-19T19:28:32.263Z,33.81
2023-05-19T19:30:35.905Z,34.18
2023-05-19T19:32:39.504Z,34.50
2023-05-19T19:34:42.927Z,34.27
2023-05-19T19:36:47.744Z,34.36
2023-05-19T19:38:51.112Z,34.77
2023-05-19T19:40:55.872Z,35.01
2023-05-19T19:42:59.374Z,35.09
2023-05-19T19:45:02.915Z,35.17
2023-05-19T19:47:06.834Z,35.25
2023-05-19T19:49:10.484Z,35.41
2023-05-19T19:51:14.025Z,35.27
2023-05-19T19:53:17.661Z,35.27
2023-05-19T19:55:21.076Z,35.47
2023-05-19T19:57:26.882Z,35.35
2023-05-19T19:59:30.611Z,35.29
2023-05-19T20:01:34.086Z,35.54
2023-05-19T20:03:38.169Z,35.98
2023-05-19T20:05:41.813Z,35.62
2023-05-19T20:07:45.404Z,35.84
2023-05-19T20:09:50.784Z,35.95
2023-05-19T20:11:54.594Z,36.22
2023-05-19T20:13:59.401Z,36.17
2023-05-19T20:16:03.017Z,36.47
2023-05-19T20:18:06.623Z,36.48
2023-05-19T20:20:12.160Z,36.81
2023-05-19T20:22:16.094Z,36.85
2023-05-19T20:24:19.524Z,37.15
2023-05-19T20:26:23.590Z,37.08
2023-05-19T20:28:27.441Z,37.19
2023-05-19T20:30:32.381Z,38.50
2023-05-19T20:32:36.001Z,39.19
2023-05-19T20:34:39.562Z,40.19
2023-05-19T20:36:42.878Z,40.36
2023-05-19T20:38:47.881Z,39.23
2023-05-19T20:40:51.267Z,39.91
2023-05-19T20:42:54.623Z,40.20
2023-05-19T20:44:58.389Z,39.41
2023-05-19T20:47:04.195Z,39.64
2023-05-19T20:49:07.647Z,39.82
2023-05-19T20:51:11.018Z,39.39
2023-05-19T20:53:14.354Z,39.24
2023-05-19T20:55:17.921Z,39.20
2023-05-19T20:57:21.396Z,39.12
2023-05-19T20:59:24.836Z,39.39
2023-05-19T21:01:29.794Z,39.60
2023-05-19T21:03:34.851Z,39.16
2023-05-19T21:05:38.311Z,39.13
2023-05-19T21:07:41.697Z,39.22
2023-05-19T21:09:46.545Z,38.65
2023-05-19T21:11:53.081Z,38.62
2023-05-19T21:13:56.612Z,38.57
2023-05-19T21:15:59.978Z,39.17
2023-05-19T21:18:03.673Z,39.04
2023-05-19T21:20:10.440Z,39.23
2023-05-19T21:22:13.907Z,39.09
2023-05-19T21:24:17.895Z,39.59
2023-05-19T21:26:21.662Z,39.54
2023-05-19T21:28:25.253Z,39.62
2023-05-19T21:30:28.791Z,39.58
2023-05-19T21:32:32.294Z,39.73
2023-05-19T21:34:36.019Z,40.01
2023-05-19T21:36:40.814Z,39.80
2023-05-19T21:38:44.196Z,40.07
2023-05-19T21:40:48.158Z,40.00
2023-05-19T21:42:51.636Z,39.99
2023-05-19T21:44:55.196Z,40.00
2023-05-19T21:46:58.755Z,40.13
2023-05-19T21:49:02.418Z,40.62
2023-05-19T21:51:06.270Z,41.94
2023-05-19T21:53:11.045Z,40.78
2023-05-19T21:55:14.424Z,40.17
2023-05-19T21:57:17.762Z,40.32
2023-05-19T21:59:23.152Z,40.45
2023-05-19T22:01:26.599Z,40.37
2023-05-19T22:03:30.094Z,40.58
2023-05-19T22:05:35.127Z,40.61
2023-05-19T22:07:39.008Z,40.70
2023-05-19T22:09:43.816Z,41.09
2023-05-19T22:11:47.202Z,41.07
2023-05-19T22:13:50.615Z,40.85
2023-05-19T22:15:53.967Z,41.19
2023-05-19T22:17:57.521Z,41.06
2023-05-19T22:20:01.093Z,41.07
2023-05-19T22:22:13.097Z,41.11
2023-05-19T22:24:18.522Z,41.21
2023-05-19T22:26:23.269Z,41.33
2023-05-19T22:28:27.133Z,41.46
2023-05-19T22:30:30.718Z,41.58
2023-05-19T22:32:35.146Z,41.44
2023-05-19T22:34:39.221Z,41.45
2023-05-19T22:36:44.217Z,41.62
2023-05-19T22:38:47.706Z,41.59
2023-05-19T22:40:51.234Z,41.89
2023-05-19T22:42:55.911Z,42.06
2023-05-19T22:44:59.282Z,42.09
2023-05-19T22:47:02.802Z,42.05
2023-05-19T22:49:06.298Z,42.38
2023-05-19T22:51:09.716Z,42.29
2023-05-19T22:53:13.039Z,42.46
2023-05-19T22:55:16.517Z,42.61
2023-05-19T22:57:20.125Z,42.66
2023-05-19T22:59:24.922Z,42.75
2023-05-19T23:01:28.654Z,42.71
2023-05-19T23:03:32.256Z,42.81
2023-05-19T23:05:36.021Z,42.89
2023-05-19T23:07:39.508Z,42.84
2023-05-19T23:09:42.826Z,42.96
2023-05-19T23:11:46.240Z,42.83
2023-05-19T23:13:49.618Z,43.00
2023-05-19T23:15:54.360Z,43.28
2023-05-19T23:17:57.788Z,43.29
2023-05-19T23:20:01.215Z,43.20
2023-05-19T23:22:04.706Z,43.13
2023-05-19T23:24:08.161Z,43.24
2023-05-19T23:26:13.285Z,43.16
2023-05-19T23:28:16.947Z,43.27
2023-05-19T23:30:20.604Z,43.10
2023-05-19T23:32:25.339Z,43.29
2023-05-19T23:34:28.716Z,43.33
2023-05-19T23:36:32.324Z,43.38
2023-05-19T23:38:35.758Z,43.37
2023-05-19T23:40:39.099Z,43.36
2023-05-19T23:42:44.454Z,43.71
2023-05-19T23:44:47.834Z,43.56
2023-05-19T23:46:51.429Z,43.62
2023-05-19T23:48:56.260Z,43.64
2023-05-19T23:50:59.714Z,43.68
2023-05-19T23:53:03.217Z,43.72
2023-05-19T23:55:07.701Z,43.81
2023-05-19T23:57:11.096Z,43.97
2023-05-19T23:59:14.550Z,43.98
